Time;durP1;ratioP1;P1;durP2;ratioP2;P2;SDS_P1;SDS_P2;PMS_P1;PMS_P2;Temp;Humidity;BMP_temperature;BMP_pressure;BME280_temperature;BME280_humidity;BME280_pressure;Samples;Min_cycle;Max_cycle;Signal;HPM_P1;HPM_P2
2021/12/12 00:00:45;;;;;;;;;;;20.50;54.70;;;;;;5027955;28;1232;-69
2021/12/12 00:03:20;;;;;;;;;;;20.50;54.70;;;;;;5032846;28;1075;-69
2021/12/12 00:05:53;;;;;;;;;;;20.50;54.60;;;;;;5027003;28;1202;-69
2021/12/12 00:08:19;;;;;;;;;;;20.40;54.60;;;;;;5021807;28;1126;-69
2021/12/12 00:10:45;;;;;;;;;;;20.50;54.60;;;;;;5024928;28;1393;-71
2021/12/12 00:13:13;;;;;;;;;;;20.50;54.60;;;;;;5023756;28;2048;-70
2021/12/12 00:15:38;;;;;;;;;;;20.50;54.60;;;;;;5017943;28;1111;-71
2021/12/12 00:18:04;;;;;;;;;;;20.50;54.60;;;;;;5019066;28;1143;-68
2021/12/12 00:20:30;;;;;;;;;;;20.50;54.60;;;;;;5031786;28;1351;-71
2021/12/12 00:22:59;;;;;;;;;;;20.50;54.60;;;;;;5032368;28;1281;-71
2021/12/12 00:25:28;;;;;;;;;;;20.50;54.50;;;;;;5031376;28;1337;-71
2021/12/12 00:27:54;;;;;;;;;;;20.50;54.50;;;;;;5031464;28;1163;-71
2021/12/12 00:30:19;;;;;;;;;;;20.50;54.50;;;;;;5019090;28;1273;-71
2021/12/12 00:32:45;;;;;;;;;;;20.50;54.50;;;;;;5032256;28;1075;-71
2021/12/12 00:35:11;;;;;;;;;;;20.50;55.10;;;;;;5032433;28;1914;-71
2021/12/12 00:37:37;;;;;;;;;;;20.50;54.50;;;;;;5031327;28;1389;-71
2021/12/12 00:40:05;;;;;;;;;;;20.50;54.40;;;;;;5032568;28;1400;-72
2021/12/12 00:42:32;;;;;;;;;;;20.50;54.40;;;;;;5030633;28;1135;-71
2021/12/12 00:44:59;;;;;;;;;;;20.50;54.40;;;;;;5032479;28;1079;-72
2021/12/12 00:47:24;;;;;;;;;;;20.50;54.40;;;;;;5031193;28;1297;-71
2021/12/12 00:49:50;;;;;;;;;;;20.50;54.40;;;;;;5031149;28;1115;-70
2021/12/12 00:52:16;;;;;;;;;;;20.50;54.50;;;;;;5030497;28;1203;-72
2021/12/12 00:54:41;;;;;;;;;;;20.50;54.50;;;;;;5031157;28;1918;-71
2021/12/12 00:57:08;;;;;;;;;;;20.50;54.40;;;;;;5032647;28;1261;-71
2021/12/12 00:59:33;;;;;;;;;;;20.50;54.50;;;;;;5032321;28;1420;-72
2021/12/12 01:01:59;;;;;;;;;;;20.50;54.50;;;;;;5035628;28;1290;-70
2021/12/12 01:04:28;;;;;;;;;;;20.50;54.50;;;;;;5051163;28;1328;-70
2021/12/12 01:06:54;;;;;;;;;;;20.50;54.60;;;;;;5051338;28;1382;-70
2021/12/12 01:09:21;;;;;;;;;;;20.50;54.50;;;;;;5051260;28;1225;-71
2021/12/12 01:11:48;;;;;;;;;;;20.50;54.60;;;;;;5035357;28;1380;-70
2021/12/12 01:14:14;;;;;;;;;;;20.50;54.60;;;;;;5051045;28;1965;-70
2021/12/12 01:16:45;;;;;;;;;;;20.40;54.60;;;;;;5051131;28;1226;-71
2021/12/12 01:19:12;;;;;;;;;;;20.40;54.60;;;;;;5035497;28;1400;-70
2021/12/12 01:21:39;;;;;;;;;;;20.40;54.60;;;;;;5051038;28;1386;-70
2021/12/12 01:24:06;;;;;;;;;;;20.40;54.60;;;;;;5035715;28;1131;-71
2021/12/12 01:26:31;;;;;;;;;;;20.40;54.70;;;;;;5035300;28;1207;-70
2021/12/12 01:28:57;;;;;;;;;;;20.40;54.70;;;;;;5051015;28;1063;-71
2021/12/12 01:31:25;;;;;;;;;;;20.40;54.70;;;;;;5050468;28;1270;-70
2021/12/12 01:33:59;;;;;;;;;;;20.40;54.70;;;;;;5035329;28;1894;-71
2021/12/12 01:36:29;;;;;;;;;;;20.40;54.80;;;;;;5026929;28;1298;-71
2021/12/12 01:38:58;;;;;;;;;;;20.40;54.80;;;;;;5035120;28;1040;-71
2021/12/12 01:41:24;;;;;;;;;;;20.40;54.80;;;;;;5035147;28;1399;-70
2021/12/12 01:43:49;;;;;;;;;;;20.40;54.80;;;;;;5035339;28;1272;-71
2021/12/12 01:46:18;;;;;;;;;;;20.40;54.80;;;;;;5050643;28;1462;-71
2021/12/12 01:48:45;;;;;;;;;;;20.40;54.80;;;;;;5035276;28;1268;-71
2021/12/12 01:51:11;;;;;;;;;;;20.30;54.80;;;;;;5058236;22;2033;-69
2021/12/12 01:53:38;;;;;;;;;;;20.40;54.90;;;;;;5054000;28;1973;-69
2021/12/12 01:56:22;;;;;;;;;;;20.30;54.90;;;;;;5055089;28;1275;-68
2021/12/12 01:58:49;;;;;;;;;;;20.30;54.80;;;;;;5055563;28;1416;-69
2021/12/12 02:01:16;;;;;;;;;;;20.30;54.90;;;;;;5036862;28;1505;-69
2021/12/12 02:03:44;;;;;;;;;;;20.30;54.90;;;;;;5036940;28;846;-69
2021/12/12 02:06:10;;;;;;;;;;;20.30;54.90;;;;;;5036761;28;1846;-70
2021/12/12 02:08:35;;;;;;;;;;;20.30;54.90;;;;;;5032110;28;1221;-70
2021/12/12 02:11:05;;;;;;;;;;;20.30;54.90;;;;;;5027834;28;1437;-70
2021/12/12 02:13:31;;;;;;;;;;;20.30;54.90;;;;;;5031540;28;1902;-70
2021/12/12 02:15:58;;;;;;;;;;;20.30;55.50;;;;;;5054521;28;1668;-70
2021/12/12 02:18:31;;;;;;;;;;;20.30;55.00;;;;;;5036374;28;1387;-69
2021/12/12 02:21:16;;;;;;;;;;;20.30;55.00;;;;;;5037322;28;1469;-69
2021/12/12 02:24:17;;;;;;;;;;;20.30;55.00;;;;;;5054147;28;1310;-69
2021/12/12 02:37:54;;;;;;;;;;;20.30;55.00;;;;;;4992379;28;1385;-69
2021/12/12 02:40:24;;;;;;;;;;;20.30;55.00;;;;;;5023795;28;1243;-69
2021/12/12 02:42:49;;;;;;;;;;;20.30;55.00;;;;;;5035749;28;1471;-69
2021/12/12 02:45:17;;;;;;;;;;;20.30;54.90;;;;;;5053821;28;1209;-69
2021/12/12 02:47:43;;;;;;;;;;;20.30;54.90;;;;;;5053671;28;1380;-69
2021/12/12 02:50:13;;;;;;;;;;;20.30;54.90;;;;;;5035979;28;1702;-69
2021/12/12 02:52:40;;;;;;;;;;;20.30;54.90;;;;;;5053227;28;1663;-70
2021/12/12 02:55:10;;;;;;;;;;;20.30;54.90;;;;;;5053627;28;1902;-69
2021/12/12 02:57:36;;;;;;;;;;;20.30;54.90;;;;;;5035887;28;859;-70
2021/12/12 03:00:01;;;;;;;;;;;20.40;54.90;;;;;;5042131;28;906;-70
2021/12/12 03:02:28;;;;;;;;;;;20.30;54.90;;;;;;5051111;28;1392;-70
2021/12/12 03:04:54;;;;;;;;;;;20.30;54.90;;;;;;5053438;28;1686;-70
2021/12/12 03:07:19;;;;;;;;;;;20.30;54.90;;;;;;5035588;28;1723;-70
2021/12/12 03:09:50;;;;;;;;;;;20.30;54.90;;;;;;5053287;28;1595;-70
2021/12/12 03:12:22;;;;;;;;;;;20.30;54.90;;;;;;5053074;28;1373;-69
2021/12/12 03:14:48;;;;;;;;;;;20.30;54.90;;;;;;5035478;28;1898;-69
2021/12/12 03:17:15;;;;;;;;;;;20.30;54.90;;;;;;5053175;28;1229;-69
2021/12/12 03:19:40;;;;;;;;;;;20.30;54.90;;;;;;5040794;28;1181;-69
2021/12/12 03:22:06;;;;;;;;;;;20.30;54.90;;;;;;5033791;28;1502;-69
2021/12/12 03:24:32;;;;;;;;;;;20.30;54.90;;;;;;5053285;28;985;-70
2021/12/12 03:26:59;;;;;;;;;;;20.30;54.90;;;;;;5039020;28;1119;-69
2021/12/12 03:29:24;;;;;;;;;;;20.30;54.90;;;;;;5028585;28;1247;-68
2021/12/12 03:32:00;;;;;;;;;;;20.30;54.90;;;;;;5043457;28;1402;-70
2021/12/12 03:34:27;;;;;;;;;;;20.30;54.90;;;;;;5024000;28;1951;-69
2021/12/12 03:36:53;;;;;;;;;;;20.30;54.90;;;;;;5045966;28;1340;-70
2021/12/12 03:39:22;;;;;;;;;;;20.30;55.00;;;;;;5009504;28;1317;-68
2021/12/12 03:41:48;;;;;;;;;;;20.30;55.00;;;;;;5043780;28;1687;-69
2021/12/12 03:44:15;;;;;;;;;;;20.30;55.00;;;;;;5026680;28;1371;-69
2021/12/12 03:46:40;;;;;;;;;;;20.30;55.00;;;;;;5026011;28;1322;-70
2021/12/12 03:49:06;;;;;;;;;;;20.20;54.90;;;;;;5026140;28;1336;-69
2021/12/12 03:51:31;;;;;;;;;;;20.30;55.00;;;;;;5045721;28;1361;-70
2021/12/12 03:53:57;;;;;;;;;;;20.20;55.00;;;;;;5043767;28;1911;-69
2021/12/12 03:56:22;;;;;;;;;;;20.20;55.00;;;;;;5042716;28;1510;-69
2021/12/12 03:58:48;;;;;;;;;;;20.20;55.60;;;;;;5044353;28;1370;-70
2021/12/12 04:01:15;;;;;;;;;;;20.30;55.00;;;;;;5028488;28;1372;-70
2021/12/12 04:03:41;;;;;;;;;;;20.20;55.00;;;;;;5043969;28;1316;-69
2021/12/12 04:06:07;;;;;;;;;;;20.20;55.00;;;;;;5046514;28;1254;-69
2021/12/12 04:08:34;;;;;;;;;;;20.20;55.00;;;;;;5024066;28;1391;-69
2021/12/12 04:10:59;;;;;;;;;;;20.20;55.10;;;;;;5041061;28;1316;-68
2021/12/12 04:13:25;;;;;;;;;;;20.20;55.00;;;;;;5007073;28;1973;-66
2021/12/12 04:15:53;;;;;;;;;;;20.20;55.10;;;;;;5043496;28;1204;-69
2021/12/12 04:18:20;;;;;;;;;;;20.20;55.10;;;;;;5044160;28;1239;-70
2021/12/12 04:20:45;;;;;;;;;;;20.20;55.10;;;;;;5026081;28;1408;-69
2021/12/12 04:23:17;;;;;;;;;;;20.20;55.10;;;;;;5025131;28;1307;-70
2021/12/12 04:25:43;;;;;;;;;;;20.20;55.10;;;;;;5026521;28;1185;-69
2021/12/12 04:28:08;;;;;;;;;;;20.20;55.10;;;;;;5026315;28;1303;-69
2021/12/12 04:30:34;;;;;;;;;;;20.20;55.10;;;;;;5040077;28;1610;-68
2021/12/12 04:32:59;;;;;;;;;;;20.20;55.10;;;;;;5047462;28;1501;-69
2021/12/12 04:35:28;;;;;;;;;;;20.20;55.10;;;;;;5055264;28;1905;-68
2021/12/12 04:37:54;;;;;;;;;;;20.20;55.20;;;;;;5056519;28;1448;-70
2021/12/12 04:40:21;;;;;;;;;;;20.20;55.10;;;;;;5046298;28;1143;-70
2021/12/12 04:42:47;;;;;;;;;;;20.20;55.10;;;;;;5034355;28;1697;-68
2021/12/12 04:45:24;;;;;;;;;;;20.20;55.20;;;;;;5056770;28;898;-68
2021/12/12 04:50:46;;;;;;;;;;;20.20;55.20;;;;;;5041838;28;1247;-69
2021/12/12 04:53:12;;;;;;;;;;;20.20;55.20;;;;;;5056148;28;1122;-69
2021/12/12 04:55:41;;;;;;;;;;;20.20;55.20;;;;;;5038399;28;1962;-69
2021/12/12 04:58:13;;;;;;;;;;;20.20;55.20;;;;;;5038454;28;1386;-70
2021/12/12 05:00:40;;;;;;;;;;;20.20;55.20;;;;;;5038441;28;1643;-68
2021/12/12 05:03:09;;;;;;;;;;;20.20;55.20;;;;;;5037800;28;1392;-69
2021/12/12 05:05:55;;;;;;;;;;;20.20;55.20;;;;;;5038272;28;1465;-69
2021/12/12 05:08:32;;;;;;;;;;;20.20;55.20;;;;;;5034023;28;1746;-69
2021/12/12 05:10:58;;;;;;;;;;;20.20;55.30;;;;;;5037016;28;1281;-69
2021/12/12 05:13:25;;;;;;;;;;;20.20;55.30;;;;;;5037787;28;1930;-69
2021/12/12 05:15:57;;;;;;;;;;;20.20;55.20;;;;;;5037188;28;1208;-69
2021/12/12 05:18:28;;;;;;;;;;;20.30;55.20;;;;;;5054632;28;1725;-69
2021/12/12 05:20:54;;;;;;;;;;;20.30;55.00;;;;;;5038443;28;1375;-69
2021/12/12 05:23:20;;;;;;;;;;;20.40;55.00;;;;;;5037803;28;1726;-69
2021/12/12 05:25:48;;;;;;;;;;;20.50;54.80;;;;;;5037930;28;1687;-69
2021/12/12 05:28:14;;;;;;;;;;;20.60;54.60;;;;;;5055407;28;1399;-69
2021/12/12 05:30:39;;;;;;;;;;;20.60;54.40;;;;;;5055669;28;1666;-69
2021/12/12 05:33:05;;;;;;;;;;;20.80;54.30;;;;;;5037376;28;1424;-68
2021/12/12 05:35:31;;;;;;;;;;;20.80;54.00;;;;;;5037728;28;1898;-68
2021/12/12 05:37:56;;;;;;;;;;;20.90;53.80;;;;;;5037833;28;1719;-68
2021/12/12 05:40:23;;;;;;;;;;;21.00;53.70;;;;;;5055378;28;1683;-68
2021/12/12 05:42:55;;;;;;;;;;;21.00;53.50;;;;;;5037044;28;1466;-68
2021/12/12 05:45:20;;;;;;;;;;;21.10;53.40;;;;;;5036778;28;1398;-68
2021/12/12 05:47:46;;;;;;;;;;;21.10;53.30;;;;;;5036941;28;1408;-68
2021/12/12 05:50:11;;;;;;;;;;;21.20;53.20;;;;;;5017501;28;1674;-68
2021/12/12 05:52:37;;;;;;;;;;;21.20;53.10;;;;;;5037188;28;1735;-68
2021/12/12 05:55:03;;;;;;;;;;;21.20;53.00;;;;;;5020338;28;1903;-68
2021/12/12 05:57:30;;;;;;;;;;;21.20;52.90;;;;;;5054928;28;1692;-68
2021/12/12 05:59:55;;;;;;;;;;;21.20;52.80;;;;;;5055165;28;1357;-68
2021/12/12 06:02:21;;;;;;;;;;;21.20;52.80;;;;;;5023601;28;1579;-69
2021/12/12 06:04:46;;;;;;;;;;;21.30;52.80;;;;;;5037253;28;1384;-69
2021/12/12 06:07:14;;;;;;;;;;;21.30;52.80;;;;;;5055033;28;1242;-70
2021/12/12 06:09:39;;;;;;;;;;;21.30;52.80;;;;;;5032504;28;1515;-70
2021/12/12 06:12:05;;;;;;;;;;;21.30;52.70;;;;;;5036950;28;1385;-69
2021/12/12 06:14:30;;;;;;;;;;;21.30;52.70;;;;;;5036866;28;1901;-69
2021/12/12 06:16:56;;;;;;;;;;;21.30;52.80;;;;;;5036860;28;1250;-70
2021/12/12 06:19:22;;;;;;;;;;;21.30;52.70;;;;;;5032481;28;1998;-73
2021/12/12 06:21:51;;;;;;;;;;;21.30;52.70;;;;;;5033156;28;2028;-73
2021/12/12 06:24:17;;;;;;;;;;;21.30;52.70;;;;;;5031981;28;1221;-73
2021/12/12 06:26:42;;;;;;;;;;;21.30;52.70;;;;;;5006976;28;1634;-72
2021/12/12 06:29:08;;;;;;;;;;;21.30;52.70;;;;;;5044556;28;1203;-71
2021/12/12 06:31:37;;;;;;;;;;;21.30;52.70;;;;;;5044591;28;1337;-72
2021/12/12 06:34:02;;;;;;;;;;;21.20;52.70;;;;;;5026833;28;1886;-72
2021/12/12 06:36:28;;;;;;;;;;;21.30;52.70;;;;;;5045735;28;1191;-72
2021/12/12 06:38:53;;;;;;;;;;;21.30;52.70;;;;;;5026028;28;1240;-72
2021/12/12 06:41:19;;;;;;;;;;;21.30;52.80;;;;;;5027851;28;1316;-72
2021/12/12 06:43:44;;;;;;;;;;;21.30;52.70;;;;;;5044410;28;1294;-73
2021/12/12 06:46:10;;;;;;;;;;;21.20;52.70;;;;;;5027684;28;1342;-73
2021/12/12 06:48:39;;;;;;;;;;;21.20;52.70;;;;;;5027686;28;1199;-74
2021/12/12 06:51:05;;;;;;;;;;;21.20;52.70;;;;;;5008624;28;1357;-75
2021/12/12 06:53:31;;;;;;;;;;;21.20;52.70;;;;;;5042616;28;1906;-75
2021/12/12 06:55:57;;;;;;;;;;;21.20;52.80;;;;;;5051806;28;1176;-73
2021/12/12 06:58:24;;;;;;;;;;;21.20;52.80;;;;;;5035777;28;1673;-72
2021/12/12 07:00:52;;;;;;;;;;;21.20;52.80;;;;;;5002684;28;1740;-72
2021/12/12 07:03:18;;;;;;;;;;;21.20;52.80;;;;;;5044948;28;1701;-71
2021/12/12 07:05:43;;;;;;;;;;;21.20;52.80;;;;;;5019481;28;1618;-71
2021/12/12 07:08:09;;;;;;;;;;;21.20;52.80;;;;;;5033802;28;1398;-71
2021/12/12 07:10:34;;;;;;;;;;;21.20;52.80;;;;;;5033050;28;1317;-72
2021/12/12 07:13:00;;;;;;;;;;;21.20;52.80;;;;;;5019005;28;1394;-72
2021/12/12 07:15:27;;;;;;;;;;;21.20;52.80;;;;;;5035452;28;2007;-70
2021/12/12 07:17:53;;;;;;;;;;;21.20;52.80;;;;;;5053643;28;1489;-72
2021/12/12 07:20:19;;;;;;;;;;;21.20;52.90;;;;;;5053182;28;1521;-72
2021/12/12 07:22:44;;;;;;;;;;;21.20;52.90;;;;;;5035142;28;1729;-70
2021/12/12 07:25:09;;;;;;;;;;;21.20;52.90;;;;;;5015510;28;1623;-70
2021/12/12 07:27:35;;;;;;;;;;;21.20;52.90;;;;;;5035730;28;1479;-69
2021/12/12 07:30:01;;;;;;;;;;;21.20;52.90;;;;;;5018959;28;1431;-69
2021/12/12 07:32:26;;;;;;;;;;;21.10;53.00;;;;;;5035300;28;1697;-68
2021/12/12 07:34:52;;;;;;;;;;;21.10;53.00;;;;;;5053288;28;1902;-70
2021/12/12 07:37:19;;;;;;;;;;;21.10;53.00;;;;;;5035913;28;1466;-69
2021/12/12 07:39:44;;;;;;;;;;;21.10;53.00;;;;;;5035416;28;1529;-69
2021/12/12 07:42:10;;;;;;;;;;;21.10;53.00;;;;;;5053016;28;1713;-70
2021/12/12 07:44:36;;;;;;;;;;;21.10;53.10;;;;;;5034680;28;2097;-69
2021/12/12 07:47:02;;;;;;;;;;;21.10;53.10;;;;;;5033528;28;1319;-70
2021/12/12 07:49:29;;;;;;;;;;;21.10;53.10;;;;;;5024884;28;2039;-70
2021/12/12 07:51:55;;;;;;;;;;;21.10;53.10;;;;;;5063733;22;3695;-70
2021/12/12 07:54:20;;;;;;;;;;;21.10;53.10;;;;;;5032915;28;1910;-70
2021/12/12 07:56:46;;;;;;;;;;;21.10;53.10;;;;;;5025418;28;2306;-69
2021/12/12 07:59:11;;;;;;;;;;;21.20;53.20;;;;;;5027296;28;1557;-70
2021/12/12 08:01:39;;;;;;;;;;;21.20;53.00;;;;;;5029926;28;1402;-71
2021/12/12 08:04:04;;;;;;;;;;;21.30;52.90;;;;;;5034722;28;1360;-69
2021/12/12 08:06:30;;;;;;;;;;;21.50;52.80;;;;;;5052493;28;1657;-69
2021/12/12 08:08:55;;;;;;;;;;;21.60;52.60;;;;;;5043040;28;1670;-71
2021/12/12 08:11:26;;;;;;;;;;;21.70;52.40;;;;;;5023492;28;1437;-68
2021/12/12 08:13:52;;;;;;;;;;;21.80;52.10;;;;;;5049410;28;1961;-70
2021/12/12 08:16:17;;;;;;;;;;;21.90;51.90;;;;;;5034756;28;1631;-70
2021/12/12 08:18:44;;;;;;;;;;;22.00;51.60;;;;;;5052679;28;1448;-70
2021/12/12 08:21:09;;;;;;;;;;;22.10;51.40;;;;;;5033956;28;1669;-70
2021/12/12 08:23:35;;;;;;;;;;;22.20;51.20;;;;;;5034670;28;1164;-69
2021/12/12 08:26:02;;;;;;;;;;;22.30;51.00;;;;;;5034921;28;1048;-69
2021/12/12 08:28:28;;;;;;;;;;;22.40;50.80;;;;;;5052408;28;1648;-69
2021/12/12 08:30:53;;;;;;;;;;;22.50;50.70;;;;;;5033543;28;1150;-69
2021/12/12 08:33:19;;;;;;;;;;;22.50;50.50;;;;;;5034211;28;1592;-68
2021/12/12 08:35:44;;;;;;;;;;;22.50;50.40;;;;;;5034233;28;1894;-69
2021/12/12 08:38:10;;;;;;;;;;;22.60;50.30;;;;;;5052369;28;788;-68
2021/12/12 08:40:37;;;;;;;;;;;22.70;50.30;;;;;;5034430;28;1424;-68
2021/12/12 08:43:08;;;;;;;;;;;22.70;50.20;;;;;;5051481;28;1261;-69
2021/12/12 08:45:34;;;;;;;;;;;22.70;50.20;;;;;;5034825;28;1336;-70
2021/12/12 08:48:00;;;;;;;;;;;22.70;50.10;;;;;;5034461;28;1350;-68
2021/12/12 08:50:26;;;;;;;;;;;22.70;50.10;;;;;;5034347;28;1690;-70
2021/12/12 08:52:51;;;;;;;;;;;22.70;50.20;;;;;;5034109;28;1273;-70
2021/12/12 08:55:19;;;;;;;;;;;22.70;50.20;;;;;;5052346;28;1902;-70
2021/12/12 08:58:02;;;;;;;;;;;22.70;50.20;;;;;;5052665;28;886;-70
2021/12/12 09:00:29;;;;;;;;;;;22.70;50.30;;;;;;5052474;28;909;-70
2021/12/12 09:02:55;;;;;;;;;;;22.70;50.30;;;;;;5051388;28;1499;-70
2021/12/12 09:05:25;;;;;;;;;;;22.70;50.40;;;;;;5038504;28;1052;-71
2021/12/12 09:07:51;;;;;;;;;;;22.70;50.30;;;;;;5034511;28;1693;-71
2021/12/12 09:10:27;;;;;;;;;;;22.70;50.30;;;;;;5021528;28;1449;-72
2021/12/12 09:13:05;;;;;;;;;;;22.70;50.40;;;;;;5050773;28;1226;-71
2021/12/12 09:15:36;;;;;;;;;;;22.70;50.40;;;;;;5033162;28;1898;-71
2021/12/12 09:18:03;;;;;;;;;;;22.60;50.30;;;;;;5051848;28;1022;-71
2021/12/12 09:20:33;;;;;;;;;;;22.60;50.40;;;;;;5052521;28;1008;-71
2021/12/12 09:23:01;;;;;;;;;;;22.60;50.40;;;;;;5054459;28;1236;-71
2021/12/12 09:25:36;;;;;;;;;;;22.60;50.50;;;;;;5054753;28;893;-71
2021/12/12 09:28:03;;;;;;;;;;;22.60;50.50;;;;;;5054990;28;863;-70
2021/12/12 09:30:29;;;;;;;;;;;22.60;50.60;;;;;;5037192;28;1658;-70
2021/12/12 09:33:04;;;;;;;;;;;22.50;50.60;;;;;;5053036;28;1416;-71
2021/12/12 09:35:31;;;;;;;;;;;22.50;50.70;;;;;;5054499;28;1894;-71
2021/12/12 09:38:11;;;;;;;;;;;22.50;50.70;;;;;;5053967;28;1398;-71
2021/12/12 09:40:55;;;;;;;;;;;22.50;50.80;;;;;;5054113;28;1373;-71
2021/12/12 09:43:30;;;;;;;;;;;22.40;50.80;;;;;;5053985;28;1488;-70
2021/12/12 09:46:00;;;;;;;;;;;22.40;51.00;;;;;;5054238;28;1229;-70
2021/12/12 09:51:44;;;;;;;;;;;22.30;51.00;;;;;;5053391;28;1297;-71
2021/12/12 09:54:25;;;;;;;;;;;22.30;51.10;;;;;;5036484;28;1968;-70
2021/12/12 09:56:57;;;;;;;;;;;22.30;51.20;;;;;;5054184;28;1040;-69
2021/12/12 09:59:23;;;;;;;;;;;22.30;51.20;;;;;;5037146;28;1549;-69
2021/12/12 10:02:05;;;;;;;;;;;22.30;51.30;;;;;;5026745;28;1282;-70
2021/12/12 10:04:33;;;;;;;;;;;22.30;51.30;;;;;;5024807;28;997;-71
2021/12/12 10:07:02;;;;;;;;;;;22.30;51.30;;;;;;5036357;28;1158;-70
2021/12/12 10:09:43;;;;;;;;;;;22.30;51.30;;;;;;5053976;28;1492;-69
2021/12/12 10:12:11;;;;;;;;;;;22.30;51.40;;;;;;5035903;28;1267;-70
2021/12/12 10:14:40;;;;;;;;;;;22.30;51.40;;;;;;5035604;28;1949;-70
2021/12/12 10:17:26;;;;;;;;;;;22.30;51.40;;;;;;5047071;28;1057;-70
2021/12/12 10:20:21;;;;;;;;;;;22.30;51.40;;;;;;5035734;28;1398;-71
2021/12/12 10:23:05;;;;;;;;;;;22.30;51.30;;;;;;5035809;28;1320;-72
2021/12/12 10:25:32;;;;;;;;;;;22.30;51.30;;;;;;5043499;28;1194;-70
2021/12/12 10:27:59;;;;;;;;;;;22.30;51.30;;;;;;5036484;28;1689;-71
2021/12/12 10:30:28;;;;;;;;;;;22.40;51.30;;;;;;5036365;28;1158;-69
2021/12/12 10:33:03;;;;;;;;;;;22.40;51.20;;;;;;5017783;28;1368;-70
2021/12/12 10:35:41;;;;;;;;;;;22.40;51.20;;;;;;5036542;28;1957;-72
2021/12/12 10:38:15;;;;;;;;;;;22.40;51.10;;;;;;5035874;28;1347;-70
2021/12/12 10:40:45;;;;;;;;;;;22.50;51.10;;;;;;5053683;28;1357;-71
2021/12/12 10:43:12;;;;;;;;;;;22.50;51.00;;;;;;5035744;28;1407;-71
2021/12/12 10:45:44;;;;;;;;;;;22.50;51.00;;;;;;5036390;28;1273;-71
2021/12/12 10:48:19;;;;;;;;;;;22.50;51.00;;;;;;5036096;28;1455;-71
2021/12/12 10:50:51;;;;;;;;;;;22.50;51.00;;;;;;5035488;28;1683;-71
2021/12/12 10:53:37;;;;;;;;;;;22.50;51.00;;;;;;5035671;28;1217;-70
2021/12/12 10:56:18;;;;;;;;;;;22.50;51.00;;;;;;5028429;28;1216;-70
2021/12/12 10:58:47;;;;;;;;;;;22.50;51.00;;;;;;5052667;28;1420;-69
2021/12/12 11:01:17;;;;;;;;;;;22.40;51.00;;;;;;5028835;28;1825;-70
2021/12/12 11:03:48;;;;;;;;;;;22.40;51.00;;;;;;5034350;28;1200;-70
2021/12/12 11:06:16;;;;;;;;;;;22.40;51.10;;;;;;5052493;28;1385;-71
2021/12/12 11:08:43;;;;;;;;;;;22.40;51.20;;;;;;5034635;28;1581;-70
2021/12/12 11:11:13;;;;;;;;;;;22.40;51.30;;;;;;5033969;28;1685;-70
2021/12/12 11:13:41;;;;;;;;;;;22.30;51.20;;;;;;5017297;28;1955;-73
2021/12/12 11:16:09;;;;;;;;;;;22.30;51.30;;;;;;5052779;28;1436;-71
2021/12/12 11:18:37;;;;;;;;;;;22.30;51.40;;;;;;5052362;28;1450;-71
2021/12/12 11:21:05;;;;;;;;;;;22.30;51.40;;;;;;5014559;28;1528;-71
2021/12/12 11:23:32;;;;;;;;;;;22.30;51.50;;;;;;5032458;28;1728;-71
2021/12/12 11:26:00;;;;;;;;;;;22.20;51.50;;;;;;5035068;28;1669;-69
2021/12/12 11:28:36;;;;;;;;;;;22.20;51.50;;;;;;5053043;28;1536;-70
2021/12/12 11:31:05;;;;;;;;;;;22.30;51.60;;;;;;5051380;28;1650;-70
2021/12/12 11:33:31;;;;;;;;;;;22.30;51.50;;;;;;5014513;28;1390;-69
2021/12/12 11:35:56;;;;;;;;;;;22.30;51.50;;;;;;5045202;28;1957;-70
2021/12/12 11:38:25;;;;;;;;;;;22.30;51.40;;;;;;5052422;28;1467;-70
2021/12/12 11:40:54;;;;;;;;;;;22.40;51.40;;;;;;5051670;28;1656;-70
2021/12/12 11:43:24;;;;;;;;;;;22.40;51.40;;;;;;5052083;28;1373;-70
2021/12/12 11:45:54;;;;;;;;;;;22.50;51.30;;;;;;5033923;28;1672;-70
2021/12/12 11:48:35;;;;;;;;;;;22.50;51.20;;;;;;5014930;28;1641;-69
2021/12/12 11:51:06;;;;;;;;;;;22.50;51.10;;;;;;5029815;28;1603;-70
2021/12/12 11:53:34;;;;;;;;;;;22.60;51.10;;;;;;5034544;28;1670;-70
2021/12/12 11:56:05;;;;;;;;;;;22.60;51.00;;;;;;5052584;28;1937;-70
2021/12/12 11:58:33;;;;;;;;;;;22.60;50.90;;;;;;5052083;28;1325;-70
2021/12/12 12:01:05;;;;;;;;;;;22.60;50.80;;;;;;5034369;28;780;-71
2021/12/12 12:03:49;;;;;;;;;;;22.60;50.80;;;;;;5053078;28;1198;-71
2021/12/12 12:06:35;;;;;;;;;;;22.60;50.80;;;;;;5020254;28;1465;-70
2021/12/12 12:09:19;;;;;;;;;;;22.60;50.70;;;;;;5032634;28;1239;-71
2021/12/12 12:11:51;;;;;;;;;;;22.60;50.80;;;;;;5010863;28;1688;-71
2021/12/12 12:14:18;;;;;;;;;;;22.60;50.80;;;;;;5052444;28;1906;-73
2021/12/12 12:16:51;;;;;;;;;;;22.60;50.80;;;;;;5052151;28;1360;-71
2021/12/12 12:19:16;;;;;;;;;;;22.60;50.80;;;;;;5034510;28;1437;-70
2021/12/12 12:22:01;;;;;;;;;;;22.60;50.90;;;;;;5051576;28;1278;-70
2021/12/12 12:24:40;;;;;;;;;;;22.50;50.90;;;;;;5052612;28;1400;-70
2021/12/12 12:27:19;;;;;;;;;;;22.50;50.90;;;;;;5035743;28;1488;-70
2021/12/12 12:30:03;;;;;;;;;;;22.50;50.90;;;;;;5034111;28;1068;-70
2021/12/12 12:32:48;;;;;;;;;;;22.50;51.00;;;;;;5045444;28;1280;-70
2021/12/12 12:35:19;;;;;;;;;;;22.50;51.10;;;;;;5043155;28;1894;-71
2021/12/12 12:37:53;;;;;;;;;;;22.50;51.10;;;;;;5042035;28;1239;-70
2021/12/12 12:40:51;;;;;;;;;;;22.50;51.20;;;;;;5043042;28;1204;-70
2021/12/12 12:43:35;;;;;;;;;;;22.40;51.20;;;;;;5022060;28;1380;-71
2021/12/12 12:46:03;;;;;;;;;;;22.40;51.20;;;;;;5046700;28;1328;-70
2021/12/12 12:48:47;;;;;;;;;;;22.40;51.30;;;;;;5051940;28;1330;-70
2021/12/12 12:51:18;;;;;;;;;;;22.40;51.30;;;;;;5050871;28;1361;-71
2021/12/12 12:53:59;;;;;;;;;;;22.40;51.30;;;;;;5051842;28;1963;-72
2021/12/12 12:56:39;;;;;;;;;;;22.50;51.30;;;;;;5054430;28;1239;-69
2021/12/12 12:59:24;;;;;;;;;;;22.50;51.20;;;;;;5037682;28;1627;-68
2021/12/12 13:01:49;;;;;;;;;;;22.50;51.20;;;;;;5042812;28;1300;-69
2021/12/12 13:04:21;;;;;;;;;;;22.50;51.10;;;;;;5054377;28;1284;-69
2021/12/12 13:06:47;;;;;;;;;;;22.50;51.10;;;;;;5055379;28;1314;-72
2021/12/12 13:09:16;;;;;;;;;;;22.50;51.10;;;;;;5049626;28;1271;-70
2021/12/12 13:11:50;;;;;;;;;;;22.50;51.10;;;;;;5045392;28;1358;-68
2021/12/12 13:14:30;;;;;;;;;;;22.50;51.20;;;;;;5027234;28;1973;-71
2021/12/12 13:17:09;;;;;;;;;;;22.50;51.20;;;;;;5029516;28;1312;-70
2021/12/12 13:19:38;;;;;;;;;;;22.40;51.20;;;;;;5029997;28;1188;-70
2021/12/12 13:22:29;;;;;;;;;;;22.40;51.30;;;;;;5042149;28;1263;-71
2021/12/12 13:24:58;;;;;;;;;;;22.40;51.40;;;;;;5043167;28;1239;-67
2021/12/12 13:30:28;;;;;;;;;;;22.40;51.50;;;;;;5044790;28;1025;-69
2021/12/12 13:33:07;;;;;;;;;;;22.30;51.50;;;;;;5045282;28;1292;-69
2021/12/12 13:35:39;;;;;;;;;;;22.30;51.60;;;;;;5034494;28;1965;-69
2021/12/12 13:38:07;;;;;;;;;;;22.30;51.60;;;;;;5037390;28;1396;-69
2021/12/12 13:40:37;;;;;;;;;;;22.30;51.70;;;;;;5037485;28;1383;-70
2021/12/12 13:43:21;;;;;;;;;;;22.20;51.60;;;;;;5036626;28;1785;-69
2021/12/12 13:45:50;;;;;;;;;;;22.20;51.80;;;;;;5055150;28;1175;-71
2021/12/12 13:48:35;;;;;;;;;;;22.20;51.70;;;;;;5055016;28;1647;-69
2021/12/12 13:51:08;;;;;;;;;;;22.20;51.80;;;;;;4993683;28;1498;-70
2021/12/12 13:53:52;;;;;;;;;;;22.20;51.80;;;;;;5040192;23;2163;-71
2021/12/12 13:56:26;;;;;;;;;;;22.20;51.90;;;;;;5857639;22;3803;-72
2021/12/12 13:58:58;;;;;;;;;;;22.10;51.90;;;;;;5044851;28;1554;-72
2021/12/12 14:01:25;;;;;;;;;;;22.10;51.90;;;;;;5043520;28;1150;-72
2021/12/12 14:03:56;;;;;;;;;;;22.10;52.00;;;;;;5067130;28;1283;-72
2021/12/12 14:06:23;;;;;;;;;;;22.10;52.00;;;;;;5069695;28;1361;-72
2021/12/12 14:08:49;;;;;;;;;;;22.10;52.00;;;;;;5039984;28;1311;-72
2021/12/12 14:11:26;;;;;;;;;;;22.10;52.00;;;;;;5069328;22;3735;-72
2021/12/12 14:13:52;;;;;;;;;;;22.00;52.00;;;;;;5014905;28;1910;-70
2021/12/12 14:16:17;;;;;;;;;;;22.10;52.10;;;;;;5032775;28;1127;-71
2021/12/12 14:18:43;;;;;;;;;;;22.00;52.10;;;;;;5029678;28;1874;-70
2021/12/12 14:21:10;;;;;;;;;;;22.00;52.70;;;;;;5024448;28;1255;-69
2021/12/12 14:23:36;;;;;;;;;;;22.00;52.20;;;;;;4997167;28;1589;-74
2021/12/12 14:26:06;;;;;;;;;;;22.00;52.20;;;;;;5013596;28;2052;-71
2021/12/12 14:28:35;;;;;;;;;;;22.00;52.20;;;;;;5008470;28;1332;-74
2021/12/12 14:31:01;;;;;;;;;;;22.00;52.20;;;;;;4998336;28;1550;-73
2021/12/12 14:33:31;;;;;;;;;;;21.90;52.20;;;;;;4998836;28;2127;-73
2021/12/12 14:36:00;;;;;;;;;;;21.90;52.30;;;;;;5008156;28;2092;-74
2021/12/12 14:38:26;;;;;;;;;;;21.90;52.30;;;;;;5008171;28;1652;-72
2021/12/12 14:40:55;;;;;;;;;;;21.90;52.30;;;;;;5000915;28;1271;-72
2021/12/12 14:43:24;;;;;;;;;;;21.90;52.30;;;;;;5014606;28;1510;-69
2021/12/12 14:45:51;;;;;;;;;;;21.90;52.40;;;;;;4993818;28;1364;-71
2021/12/12 14:48:17;;;;;;;;;;;21.90;52.40;;;;;;4990865;28;2110;-70
2021/12/12 14:50:46;;;;;;;;;;;21.80;52.30;;;;;;4990950;28;1515;-69
2021/12/12 14:53:12;;;;;;;;;;;21.80;52.40;;;;;;5006975;28;1536;-70
2021/12/12 14:55:57;;;;;;;;;;;21.80;52.40;;;;;;5005071;28;1907;-69
2021/12/12 14:58:28;;;;;;;;;;;21.80;52.40;;;;;;5002535;28;1523;-72
2021/12/12 15:00:55;;;;;;;;;;;21.80;52.50;;;;;;4996603;28;1666;-73
2021/12/12 15:03:23;;;;;;;;;;;21.80;52.50;;;;;;4996621;28;1399;-73